Terminal Aerodrome Forecast
Issued by NWS Jackson, MS

Home | Current Version | Previous Version | Text Only | Print | Product List | Glossary On
Versions: 1 2 3 4 5 6 7 8 9 10 11 12 13
000
FTUS44 KJAN 171700
TAFJAN
TAF
KJAN 171721Z 1718/1818 VRB04KT P6SM SCT050
     FM180000 VRB02KT P6SM FEW250
     FM181500 VRB03KT P6SM SCT040=

USA.gov is the U.S. government's official web portal to all federal, state and local government web resources and services.